sensor_id;sensor_type;location;lat;lon;timestamp;P1;durP1;ratioP1;P2;durP2;ratioP2
22034;SDS011;11181;51.002;4.356;2023-05-19T00:02:21;6.57;;;5.23;;
22034;SDS011;11181;51.002;4.356;2023-05-19T00:04:50;8.03;;;5.60;;
22034;SDS011;11181;51.002;4.356;2023-05-19T00:07:18;8.23;;;5.17;;
22034;SDS011;11181;51.002;4.356;2023-05-19T00:09:49;9.57;;;5.73;;
22034;SDS011;11181;51.002;4.356;2023-05-19T00:12:17;11.03;;;5.70;;
22034;SDS011;11181;51.002;4.356;2023-05-19T00:14:44;8.77;;;5.63;;
22034;SDS011;11181;51.002;4.356;2023-05-19T00:17:11;8.50;;;5.73;;
22034;SDS011;11181;51.002;4.356;2023-05-19T00:19:40;11.30;;;5.57;;
22034;SDS011;11181;51.002;4.356;2023-05-19T00:22:13;7.50;;;4.93;;
22034;SDS011;11181;51.002;4.356;2023-05-19T00:24:41;5.97;;;5.03;;
22034;SDS011;11181;51.002;4.356;2023-05-19T00:27:08;7.13;;;5.43;;
22034;SDS011;11181;51.002;4.356;2023-05-19T00:29:35;7.20;;;5.20;;
22034;SDS011;11181;51.002;4.356;2023-05-19T00:32:02;12.47;;;6.33;;
22034;SDS011;11181;51.002;4.356;2023-05-19T00:34:29;10.40;;;5.43;;
22034;SDS011;11181;51.002;4.356;2023-05-19T00:36:56;8.00;;;6.23;;
22034;SDS011;11181;51.002;4.356;2023-05-19T00:39:23;7.40;;;6.00;;
22034;SDS011;11181;51.002;4.356;2023-05-19T00:41:51;7.17;;;5.60;;
22034;SDS011;11181;51.002;4.356;2023-05-19T00:44:18;8.23;;;5.37;;
22034;SDS011;11181;51.002;4.356;2023-05-19T00:46:44;13.57;;;6.00;;
22034;SDS011;11181;51.002;4.356;2023-05-19T00:49:11;10.20;;;5.97;;
22034;SDS011;11181;51.002;4.356;2023-05-19T00:51:38;11.73;;;5.90;;
22034;SDS011;11181;51.002;4.356;2023-05-19T00:54:06;11.13;;;5.83;;
22034;SDS011;11181;51.002;4.356;2023-05-19T00:56:33;9.23;;;6.07;;
22034;SDS011;11181;51.002;4.356;2023-05-19T00:59:02;6.30;;;5.50;;
22034;SDS011;11181;51.002;4.356;2023-05-19T01:01:29;9.23;;;5.53;;
22034;SDS011;11181;51.002;4.356;2023-05-19T01:03:56;9.57;;;6.23;;
22034;SDS011;11181;51.002;4.356;2023-05-19T01:06:23;8.93;;;6.07;;
22034;SDS011;11181;51.002;4.356;2023-05-19T01:08:53;7.60;;;5.60;;
22034;SDS011;11181;51.002;4.356;2023-05-19T01:11:21;9.73;;;5.13;;
22034;SDS011;11181;51.002;4.356;2023-05-19T01:13:48;10.50;;;5.87;;
22034;SDS011;11181;51.002;4.356;2023-05-19T01:16:18;8.13;;;5.07;;
22034;SDS011;11181;51.002;4.356;2023-05-19T01:18:51;8.77;;;5.13;;
22034;SDS011;11181;51.002;4.356;2023-05-19T01:21:39;7.70;;;5.40;;
22034;SDS011;11181;51.002;4.356;2023-05-19T01:24:23;8.13;;;5.10;;
22034;SDS011;11181;51.002;4.356;2023-05-19T01:27:30;9.43;;;5.40;;
22034;SDS011;11181;51.002;4.356;2023-05-19T01:30:25;13.90;;;5.27;;
22034;SDS011;11181;51.002;4.356;2023-05-19T01:32:56;8.20;;;5.80;;
22034;SDS011;11181;51.002;4.356;2023-05-19T01:35:25;14.13;;;6.73;;
22034;SDS011;11181;51.002;4.356;2023-05-19T01:37:53;11.87;;;6.00;;
22034;SDS011;11181;51.002;4.356;2023-05-19T01:40:22;7.93;;;5.53;;
22034;SDS011;11181;51.002;4.356;2023-05-19T01:42:50;9.10;;;5.27;;
22034;SDS011;11181;51.002;4.356;2023-05-19T01:45:19;8.30;;;5.70;;
22034;SDS011;11181;51.002;4.356;2023-05-19T01:47:50;9.87;;;6.27;;
22034;SDS011;11181;51.002;4.356;2023-05-19T01:50:18;8.33;;;5.30;;
22034;SDS011;11181;51.002;4.356;2023-05-19T01:52:45;10.57;;;6.53;;
22034;SDS011;11181;51.002;4.356;2023-05-19T01:55:12;7.33;;;5.20;;
22034;SDS011;11181;51.002;4.356;2023-05-19T01:57:42;12.13;;;5.87;;
22034;SDS011;11181;51.002;4.356;2023-05-19T02:00:15;11.40;;;5.27;;
22034;SDS011;11181;51.002;4.356;2023-05-19T02:02:53;10.30;;;6.30;;
22034;SDS011;11181;51.002;4.356;2023-05-19T02:05:27;8.47;;;5.40;;
22034;SDS011;11181;51.002;4.356;2023-05-19T02:08:04;15.20;;;6.93;;
22034;SDS011;11181;51.002;4.356;2023-05-19T02:10:36;9.70;;;5.93;;
22034;SDS011;11181;51.002;4.356;2023-05-19T02:13:10;9.53;;;6.93;;
22034;SDS011;11181;51.002;4.356;2023-05-19T02:15:42;16.07;;;6.37;;
22034;SDS011;11181;51.002;4.356;2023-05-19T02:18:17;7.53;;;5.53;;
22034;SDS011;11181;51.002;4.356;2023-05-19T02:20:44;7.43;;;5.37;;
22034;SDS011;11181;51.002;4.356;2023-05-19T02:23:11;10.23;;;6.63;;
22034;SDS011;11181;51.002;4.356;2023-05-19T02:25:38;8.87;;;5.73;;
22034;SDS011;11181;51.002;4.356;2023-05-19T02:28:05;7.43;;;5.27;;
22034;SDS011;11181;51.002;4.356;2023-05-19T02:30:32;7.17;;;5.57;;
22034;SDS011;11181;51.002;4.356;2023-05-19T02:32:58;7.77;;;5.37;;
22034;SDS011;11181;51.002;4.356;2023-05-19T02:35:27;9.53;;;5.60;;
22034;SDS011;11181;51.002;4.356;2023-05-19T02:37:54;11.87;;;5.73;;
22034;SDS011;11181;51.002;4.356;2023-05-19T02:40:21;8.90;;;6.23;;
22034;SDS011;11181;51.002;4.356;2023-05-19T02:42:48;10.10;;;5.33;;
22034;SDS011;11181;51.002;4.356;2023-05-19T02:45:15;6.47;;;5.40;;
22034;SDS011;11181;51.002;4.356;2023-05-19T02:47:42;8.30;;;6.17;;
22034;SDS011;11181;51.002;4.356;2023-05-19T02:50:09;12.80;;;6.30;;
22034;SDS011;11181;51.002;4.356;2023-05-19T02:52:37;10.83;;;6.27;;
22034;SDS011;11181;51.002;4.356;2023-05-19T02:55:05;7.87;;;5.17;;
22034;SDS011;11181;51.002;4.356;2023-05-19T02:57:33;9.00;;;5.30;;
22034;SDS011;11181;51.002;4.356;2023-05-19T03:00:00;8.07;;;5.83;;
22034;SDS011;11181;51.002;4.356;2023-05-19T03:02:27;8.23;;;5.97;;
22034;SDS011;11181;51.002;4.356;2023-05-19T03:04:57;9.80;;;6.20;;
22034;SDS011;11181;51.002;4.356;2023-05-19T03:07:25;8.93;;;6.07;;
22034;SDS011;11181;51.002;4.356;2023-05-19T03:09:54;9.90;;;6.83;;
22034;SDS011;11181;51.002;4.356;2023-05-19T03:12:21;10.20;;;6.30;;
22034;SDS011;11181;51.002;4.356;2023-05-19T03:14:48;7.77;;;6.40;;
22034;SDS011;11181;51.002;4.356;2023-05-19T03:17:15;11.37;;;6.20;;
22034;SDS011;11181;51.002;4.356;2023-05-19T03:19:42;7.20;;;6.33;;
22034;SDS011;11181;51.002;4.356;2023-05-19T03:22:09;10.57;;;6.23;;
22034;SDS011;11181;51.002;4.356;2023-05-19T03:24:36;9.13;;;6.00;;
22034;SDS011;11181;51.002;4.356;2023-05-19T03:27:05;8.70;;;6.97;;
22034;SDS011;11181;51.002;4.356;2023-05-19T03:29:31;10.67;;;6.17;;
22034;SDS011;11181;51.002;4.356;2023-05-19T03:31:58;11.40;;;6.60;;
22034;SDS011;11181;51.002;4.356;2023-05-19T03:34:25;11.63;;;6.33;;
22034;SDS011;11181;51.002;4.356;2023-05-19T03:36:52;8.80;;;5.93;;
22034;SDS011;11181;51.002;4.356;2023-05-19T03:39:19;10.67;;;6.97;;
22034;SDS011;11181;51.002;4.356;2023-05-19T03:41:46;9.77;;;5.87;;
22034;SDS011;11181;51.002;4.356;2023-05-19T03:44:15;14.63;;;7.07;;
22034;SDS011;11181;51.002;4.356;2023-05-19T03:46:42;10.03;;;6.33;;
22034;SDS011;11181;51.002;4.356;2023-05-19T03:49:08;9.90;;;6.40;;
22034;SDS011;11181;51.002;4.356;2023-05-19T03:51:38;10.90;;;7.27;;
22034;SDS011;11181;51.002;4.356;2023-05-19T03:54:05;9.57;;;6.53;;
22034;SDS011;11181;51.002;4.356;2023-05-19T03:56:32;15.77;;;7.13;;
22034;SDS011;11181;51.002;4.356;2023-05-19T03:58:59;8.00;;;6.07;;
22034;SDS011;11181;51.002;4.356;2023-05-19T04:01:27;8.77;;;5.93;;
22034;SDS011;11181;51.002;4.356;2023-05-19T04:03:54;9.23;;;5.97;;
22034;SDS011;11181;51.002;4.356;2023-05-19T04:06:21;8.40;;;5.70;;
22034;SDS011;11181;51.002;4.356;2023-05-19T04:08:48;9.63;;;6.63;;
22034;SDS011;11181;51.002;4.356;2023-05-19T04:11:15;9.57;;;6.03;;
22034;SDS011;11181;51.002;4.356;2023-05-19T04:13:43;12.30;;;6.87;;
22034;SDS011;11181;51.002;4.356;2023-05-19T04:16:11;10.33;;;6.27;;
22034;SDS011;11181;51.002;4.356;2023-05-19T04:18:39;9.10;;;6.07;;
22034;SDS011;11181;51.002;4.356;2023-05-19T04:21:06;11.27;;;5.97;;
22034;SDS011;11181;51.002;4.356;2023-05-19T04:23:33;9.40;;;6.50;;
22034;SDS011;11181;51.002;4.356;2023-05-19T04:26:00;10.10;;;6.23;;
22034;SDS011;11181;51.002;4.356;2023-05-19T04:28:27;11.70;;;6.57;;
22034;SDS011;11181;51.002;4.356;2023-05-19T04:30:54;9.60;;;5.80;;
22034;SDS011;11181;51.002;4.356;2023-05-19T04:33:22;12.33;;;6.40;;
22034;SDS011;11181;51.002;4.356;2023-05-19T04:35:50;7.33;;;5.67;;
22034;SDS011;11181;51.002;4.356;2023-05-19T04:38:17;9.47;;;6.17;;
22034;SDS011;11181;51.002;4.356;2023-05-19T04:40:46;10.30;;;5.50;;
22034;SDS011;11181;51.002;4.356;2023-05-19T04:43:14;8.87;;;5.87;;
22034;SDS011;11181;51.002;4.356;2023-05-19T04:45:42;8.00;;;5.43;;
22034;SDS011;11181;51.002;4.356;2023-05-19T04:48:08;8.37;;;6.53;;
22034;SDS011;11181;51.002;4.356;2023-05-19T04:50:36;13.90;;;7.33;;
22034;SDS011;11181;51.002;4.356;2023-05-19T04:53:07;10.43;;;6.63;;
22034;SDS011;11181;51.002;4.356;2023-05-19T04:55:35;10.23;;;5.83;;
22034;SDS011;11181;51.002;4.356;2023-05-19T04:58:03;9.97;;;5.63;;
22034;SDS011;11181;51.002;4.356;2023-05-19T05:00:30;11.33;;;6.37;;
22034;SDS011;11181;51.002;4.356;2023-05-19T05:02:59;8.10;;;5.63;;
22034;SDS011;11181;51.002;4.356;2023-05-19T05:05:29;11.00;;;6.30;;
22034;SDS011;11181;51.002;4.356;2023-05-19T05:07:56;10.77;;;5.90;;
22034;SDS011;11181;51.002;4.356;2023-05-19T05:10:24;7.47;;;5.73;;
22034;SDS011;11181;51.002;4.356;2023-05-19T05:12:51;11.13;;;6.37;;
22034;SDS011;11181;51.002;4.356;2023-05-19T05:15:19;12.07;;;6.37;;
22034;SDS011;11181;51.002;4.356;2023-05-19T05:17:48;9.67;;;5.47;;
22034;SDS011;11181;51.002;4.356;2023-05-19T05:20:15;9.10;;;5.67;;
22034;SDS011;11181;51.002;4.356;2023-05-19T05:22:43;9.30;;;6.90;;
22034;SDS011;11181;51.002;4.356;2023-05-19T05:25:11;8.70;;;6.17;;
22034;SDS011;11181;51.002;4.356;2023-05-19T05:27:41;7.83;;;5.77;;
22034;SDS011;11181;51.002;4.356;2023-05-19T05:30:08;9.27;;;5.90;;
22034;SDS011;11181;51.002;4.356;2023-05-19T05:32:35;8.47;;;5.60;;
22034;SDS011;11181;51.002;4.356;2023-05-19T05:35:02;9.77;;;5.67;;
22034;SDS011;11181;51.002;4.356;2023-05-19T05:37:30;8.50;;;5.70;;
22034;SDS011;11181;51.002;4.356;2023-05-19T05:39:58;10.97;;;6.00;;
22034;SDS011;11181;51.002;4.356;2023-05-19T05:42:25;10.63;;;6.40;;
22034;SDS011;11181;51.002;4.356;2023-05-19T05:44:54;9.70;;;6.20;;
22034;SDS011;11181;51.002;4.356;2023-05-19T05:47:21;12.00;;;6.97;;
22034;SDS011;11181;51.002;4.356;2023-05-19T05:49:48;8.37;;;6.30;;
22034;SDS011;11181;51.002;4.356;2023-05-19T05:52:16;9.43;;;5.97;;
22034;SDS011;11181;51.002;4.356;2023-05-19T05:54:45;9.23;;;6.50;;
22034;SDS011;11181;51.002;4.356;2023-05-19T05:57:12;14.77;;;6.57;;
22034;SDS011;11181;51.002;4.356;2023-05-19T05:59:39;9.70;;;6.40;;
22034;SDS011;11181;51.002;4.356;2023-05-19T06:02:10;8.17;;;6.17;;
22034;SDS011;11181;51.002;4.356;2023-05-19T06:04:37;7.20;;;5.97;;
22034;SDS011;11181;51.002;4.356;2023-05-19T06:07:04;9.67;;;6.50;;
22034;SDS011;11181;51.002;4.356;2023-05-19T06:09:31;10.47;;;6.30;;
22034;SDS011;11181;51.002;4.356;2023-05-19T06:11:58;16.30;;;7.27;;
22034;SDS011;11181;51.002;4.356;2023-05-19T06:14:25;15.20;;;7.40;;
22034;SDS011;11181;51.002;4.356;2023-05-19T06:16:52;8.87;;;6.70;;
22034;SDS011;11181;51.002;4.356;2023-05-19T06:19:20;10.07;;;6.50;;
22034;SDS011;11181;51.002;4.356;2023-05-19T06:21:49;8.57;;;6.90;;
22034;SDS011;11181;51.002;4.356;2023-05-19T06:24:16;9.43;;;7.27;;
22034;SDS011;11181;51.002;4.356;2023-05-19T06:26:43;13.43;;;7.13;;
22034;SDS011;11181;51.002;4.356;2023-05-19T06:29:09;10.97;;;6.17;;
22034;SDS011;11181;51.002;4.356;2023-05-19T06:31:36;14.33;;;6.97;;
22034;SDS011;11181;51.002;4.356;2023-05-19T06:34:03;9.67;;;7.53;;
22034;SDS011;11181;51.002;4.356;2023-05-19T06:36:31;12.03;;;7.07;;
22034;SDS011;11181;51.002;4.356;2023-05-19T06:38:59;9.63;;;6.27;;
22034;SDS011;11181;51.002;4.356;2023-05-19T06:41:26;9.93;;;6.73;;
22034;SDS011;11181;51.002;4.356;2023-05-19T06:43:52;9.03;;;5.93;;
22034;SDS011;11181;51.002;4.356;2023-05-19T06:46:20;9.17;;;6.00;;
22034;SDS011;11181;51.002;4.356;2023-05-19T06:48:47;11.53;;;5.97;;
22034;SDS011;11181;51.002;4.356;2023-05-19T06:51:14;9.03;;;6.77;;
22034;SDS011;11181;51.002;4.356;2023-05-19T06:53:47;11.53;;;6.87;;
22034;SDS011;11181;51.002;4.356;2023-05-19T06:56:14;9.87;;;6.07;;
22034;SDS011;11181;51.002;4.356;2023-05-19T06:58:42;10.20;;;7.07;;
22034;SDS011;11181;51.002;4.356;2023-05-19T07:01:08;12.27;;;6.77;;
22034;SDS011;11181;51.002;4.356;2023-05-19T07:03:36;10.50;;;7.50;;
22034;SDS011;11181;51.002;4.356;2023-05-19T07:06:02;10.53;;;6.27;;
22034;SDS011;11181;51.002;4.356;2023-05-19T07:08:29;9.90;;;6.97;;
22034;SDS011;11181;51.002;4.356;2023-05-19T07:10:59;9.03;;;6.53;;
22034;SDS011;11181;51.002;4.356;2023-05-19T07:13:26;11.97;;;6.53;;
22034;SDS011;11181;51.002;4.356;2023-05-19T07:15:53;11.30;;;6.80;;
22034;SDS011;11181;51.002;4.356;2023-05-19T07:18:20;9.70;;;6.83;;
22034;SDS011;11181;51.002;4.356;2023-05-19T07:20:47;10.70;;;6.13;;
22034;SDS011;11181;51.002;4.356;2023-05-19T07:23:14;12.43;;;5.57;;
22034;SDS011;11181;51.002;4.356;2023-05-19T07:25:41;10.77;;;6.93;;
22034;SDS011;11181;51.002;4.356;2023-05-19T07:28:10;13.17;;;6.60;;
22034;SDS011;11181;51.002;4.356;2023-05-19T07:30:37;11.23;;;6.80;;
22034;SDS011;11181;51.002;4.356;2023-05-19T07:33:06;9.33;;;6.07;;
22034;SDS011;11181;51.002;4.356;2023-05-19T07:35:33;10.17;;;7.10;;
22034;SDS011;11181;51.002;4.356;2023-05-19T07:38:01;9.30;;;6.07;;
22034;SDS011;11181;51.002;4.356;2023-05-19T07:40:28;7.50;;;6.33;;
22034;SDS011;11181;51.002;4.356;2023-05-19T07:42:55;9.70;;;6.77;;
22034;SDS011;11181;51.002;4.356;2023-05-19T07:45:23;12.17;;;6.13;;
22034;SDS011;11181;51.002;4.356;2023-05-19T07:47:50;9.97;;;6.27;;
22034;SDS011;11181;51.002;4.356;2023-05-19T07:50:18;12.53;;;6.57;;
22034;SDS011;11181;51.002;4.356;2023-05-19T07:52:45;10.03;;;6.87;;
22034;SDS011;11181;51.002;4.356;2023-05-19T07:55:12;8.20;;;6.07;;
22034;SDS011;11181;51.002;4.356;2023-05-19T07:57:39;10.97;;;8.70;;
22034;SDS011;11181;51.002;4.356;2023-05-19T08:00:06;11.63;;;6.90;;
22034;SDS011;11181;51.002;4.356;2023-05-19T08:02:37;9.67;;;6.60;;
22034;SDS011;11181;51.002;4.356;2023-05-19T08:05:04;11.30;;;6.87;;
22034;SDS011;11181;51.002;4.356;2023-05-19T08:07:33;8.73;;;6.53;;
22034;SDS011;11181;51.002;4.356;2023-05-19T08:10:00;8.07;;;6.10;;
22034;SDS011;11181;51.002;4.356;2023-05-19T08:12:27;10.70;;;6.67;;
22034;SDS011;11181;51.002;4.356;2023-05-19T08:14:54;13.60;;;6.73;;
22034;SDS011;11181;51.002;4.356;2023-05-19T08:17:20;7.77;;;5.23;;
22034;SDS011;11181;51.002;4.356;2023-05-19T08:19:49;8.67;;;6.70;;
22034;SDS011;11181;51.002;4.356;2023-05-19T08:22:17;8.43;;;6.00;;
22034;SDS011;11181;51.002;4.356;2023-05-19T08:24:44;9.27;;;6.47;;
22034;SDS011;11181;51.002;4.356;2023-05-19T08:27:13;9.07;;;5.90;;
22034;SDS011;11181;51.002;4.356;2023-05-19T08:29:40;10.67;;;6.77;;
22034;SDS011;11181;51.002;4.356;2023-05-19T08:32:07;7.00;;;5.50;;
22034;SDS011;11181;51.002;4.356;2023-05-19T08:34:34;7.80;;;5.73;;
22034;SDS011;11181;51.002;4.356;2023-05-19T08:37:02;11.93;;;6.03;;
22034;SDS011;11181;51.002;4.356;2023-05-19T08:39:29;9.40;;;6.17;;
22034;SDS011;11181;51.002;4.356;2023-05-19T08:41:58;9.50;;;5.37;;
22034;SDS011;11181;51.002;4.356;2023-05-19T08:44:25;8.17;;;5.90;;
22034;SDS011;11181;51.002;4.356;2023-05-19T08:46:53;10.80;;;5.70;;
22034;SDS011;11181;51.002;4.356;2023-05-19T08:49:22;6.83;;;5.37;;
22034;SDS011;11181;51.002;4.356;2023-05-19T08:51:54;7.67;;;5.20;;
22034;SDS011;11181;51.002;4.356;2023-05-19T08:54:29;9.43;;;5.03;;
22034;SDS011;11181;51.002;4.356;2023-05-19T08:57:04;8.97;;;5.53;;
22034;SDS011;11181;51.002;4.356;2023-05-19T08:59:34;9.03;;;5.00;;
22034;SDS011;11181;51.002;4.356;2023-05-19T09:02:02;6.70;;;4.47;;
22034;SDS011;11181;51.002;4.356;2023-05-19T09:04:30;8.30;;;4.90;;
22034;SDS011;11181;51.002;4.356;2023-05-19T09:06:57;6.73;;;4.53;;
22034;SDS011;11181;51.002;4.356;2023-05-19T09:09:29;6.33;;;4.40;;
22034;SDS011;11181;51.002;4.356;2023-05-19T09:11:56;9.70;;;4.90;;
22034;SDS011;11181;51.002;4.356;2023-05-19T09:14:26;6.83;;;4.60;;
22034;SDS011;11181;51.002;4.356;2023-05-19T09:16:54;9.43;;;5.00;;
22034;SDS011;11181;51.002;4.356;2023-05-19T09:19:21;7.63;;;4.33;;
22034;SDS011;11181;51.002;4.356;2023-05-19T09:21:56;12.75;;;4.85;;
22034;SDS011;11181;51.002;4.356;2023-05-19T09:24:25;6.68;;;4.05;;
22034;SDS011;11181;51.002;4.356;2023-05-19T09:26:54;8.48;;;4.82;;
22034;SDS011;11181;51.002;4.356;2023-05-19T09:29:22;5.05;;;4.05;;
22034;SDS011;11181;51.002;4.356;2023-05-19T09:31:49;10.95;;;4.50;;
22034;SDS011;11181;51.002;4.356;2023-05-19T09:34:16;8.48;;;4.18;;
22034;SDS011;11181;51.002;4.356;2023-05-19T09:36:45;3.65;;;2.90;;
22034;SDS011;11181;51.002;4.356;2023-05-19T09:39:13;6.72;;;3.42;;
22034;SDS011;11181;51.002;4.356;2023-05-19T09:41:41;6.22;;;3.40;;
22034;SDS011;11181;51.002;4.356;2023-05-19T09:44:12;5.50;;;3.20;;
22034;SDS011;11181;51.002;4.356;2023-05-19T09:46:46;9.18;;;3.58;;
22034;SDS011;11181;51.002;4.356;2023-05-19T09:49:17;6.95;;;3.85;;
22034;SDS011;11181;51.002;4.356;2023-05-19T09:51:48;6.97;;;3.50;;
22034;SDS011;11181;51.002;4.356;2023-05-19T09:54:16;5.03;;;3.03;;
22034;SDS011;11181;51.002;4.356;2023-05-19T09:56:45;8.07;;;3.13;;
22034;SDS011;11181;51.002;4.356;2023-05-19T09:59:19;5.35;;;2.78;;
22034;SDS011;11181;51.002;4.356;2023-05-19T10:01:51;2.72;;;1.98;;
22034;SDS011;11181;51.002;4.356;2023-05-19T10:04:20;12.73;;;4.00;;
22034;SDS011;11181;51.002;4.356;2023-05-19T10:06:48;3.83;;;2.13;;
22034;SDS011;11181;51.002;4.356;2023-05-19T10:09:19;6.05;;;2.45;;
22034;SDS011;11181;51.002;4.356;2023-05-19T10:11:50;4.68;;;2.28;;
22034;SDS011;11181;51.002;4.356;2023-05-19T10:14:23;5.15;;;2.60;;
22034;SDS011;11181;51.002;4.356;2023-05-19T10:16:51;6.22;;;2.33;;
22034;SDS011;11181;51.002;4.356;2023-05-19T10:19:19;5.45;;;2.70;;
22034;SDS011;11181;51.002;4.356;2023-05-19T10:21:47;5.90;;;2.60;;
22034;SDS011;11181;51.002;4.356;2023-05-19T10:24:15;4.18;;;2.08;;
22034;SDS011;11181;51.002;4.356;2023-05-19T10:26:42;7.07;;;3.05;;
22034;SDS011;11181;51.002;4.356;2023-05-19T10:29:11;4.32;;;2.22;;
22034;SDS011;11181;51.002;4.356;2023-05-19T10:31:43;8.07;;;2.53;;
22034;SDS011;11181;51.002;4.356;2023-05-19T10:34:20;8.50;;;3.20;;
22034;SDS011;11181;51.002;4.356;2023-05-19T10:37:02;3.05;;;2.22;;
22034;SDS011;11181;51.002;4.356;2023-05-19T10:39:40;3.67;;;1.95;;
22034;SDS011;11181;51.002;4.356;2023-05-19T10:42:09;4.20;;;2.22;;
22034;SDS011;11181;51.002;4.356;2023-05-19T10:44:45;3.78;;;2.17;;
22034;SDS011;11181;51.002;4.356;2023-05-19T10:47:23;3.78;;;2.25;;
22034;SDS011;11181;51.002;4.356;2023-05-19T10:49:51;8.63;;;2.13;;
22034;SDS011;11181;51.002;4.356;2023-05-19T10:52:18;3.42;;;2.15;;
22034;SDS011;11181;51.002;4.356;2023-05-19T10:54:47;4.82;;;2.97;;
22034;SDS011;11181;51.002;4.356;2023-05-19T10:57:15;8.98;;;3.58;;
22034;SDS011;11181;51.002;4.356;2023-05-19T10:59:42;5.40;;;3.53;;
22034;SDS011;11181;51.002;4.356;2023-05-19T11:02:10;6.15;;;3.22;;
22034;SDS011;11181;51.002;4.356;2023-05-19T11:05:07;6.70;;;2.63;;
22034;SDS011;11181;51.002;4.356;2023-05-19T11:07:34;4.72;;;2.45;;
22034;SDS011;11181;51.002;4.356;2023-05-19T11:10:04;7.60;;;3.28;;
22034;SDS011;11181;51.002;4.356;2023-05-19T11:12:38;6.55;;;3.45;;
22034;SDS011;11181;51.002;4.356;2023-05-19T11:15:07;9.52;;;3.72;;
22034;SDS011;11181;51.002;4.356;2023-05-19T11:17:38;6.13;;;2.75;;
22034;SDS011;11181;51.002;4.356;2023-05-19T11:20:07;4.13;;;3.03;;
22034;SDS011;11181;51.002;4.356;2023-05-19T11:22:36;5.32;;;2.83;;
22034;SDS011;11181;51.002;4.356;2023-05-19T11:25:03;6.32;;;2.67;;
22034;SDS011;11181;51.002;4.356;2023-05-19T11:27:32;6.53;;;2.50;;
22034;SDS011;11181;51.002;4.356;2023-05-19T11:30:07;6.43;;;3.33;;
22034;SDS011;11181;51.002;4.356;2023-05-19T11:32:40;8.02;;;3.15;;
22034;SDS011;11181;51.002;4.356;2023-05-19T11:35:09;3.97;;;2.90;;
22034;SDS011;11181;51.002;4.356;2023-05-19T11:37:38;7.35;;;3.38;;
22034;SDS011;11181;51.002;4.356;2023-05-19T11:40:07;5.55;;;2.65;;
22034;SDS011;11181;51.002;4.356;2023-05-19T11:42:35;5.53;;;3.08;;
22034;SDS011;11181;51.002;4.356;2023-05-19T11:45:02;7.93;;;2.67;;
22034;SDS011;11181;51.002;4.356;2023-05-19T11:47:30;4.07;;;2.97;;
22034;SDS011;11181;51.002;4.356;2023-05-19T11:49:59;5.38;;;3.13;;
22034;SDS011;11181;51.002;4.356;2023-05-19T11:52:26;5.68;;;3.10;;
22034;SDS011;11181;51.002;4.356;2023-05-19T11:54:53;6.75;;;2.33;;
22034;SDS011;11181;51.002;4.356;2023-05-19T11:57:20;4.85;;;3.03;;
22034;SDS011;11181;51.002;4.356;2023-05-19T11:59:47;4.32;;;3.28;;
22034;SDS011;11181;51.002;4.356;2023-05-19T12:02:16;5.88;;;2.67;;
22034;SDS011;11181;51.002;4.356;2023-05-19T12:04:44;6.15;;;2.38;;
22034;SDS011;11181;51.002;4.356;2023-05-19T12:07:13;7.22;;;2.85;;
22034;SDS011;11181;51.002;4.356;2023-05-19T12:09:42;6.63;;;2.80;;
22034;SDS011;11181;51.002;4.356;2023-05-19T12:12:12;3.95;;;2.35;;
22034;SDS011;11181;51.002;4.356;2023-05-19T12:14:39;5.65;;;2.30;;
22034;SDS011;11181;51.002;4.356;2023-05-19T12:17:09;4.90;;;2.33;;
22034;SDS011;11181;51.002;4.356;2023-05-19T12:19:37;3.70;;;1.80;;
22034;SDS011;11181;51.002;4.356;2023-05-19T12:22:05;5.63;;;2.83;;
22034;SDS011;11181;51.002;4.356;2023-05-19T12:24:34;6.18;;;2.25;;
22034;SDS011;11181;51.002;4.356;2023-05-19T12:27:08;7.85;;;2.88;;
22034;SDS011;11181;51.002;4.356;2023-05-19T12:29:37;4.63;;;2.47;;
22034;SDS011;11181;51.002;4.356;2023-05-19T12:32:04;5.85;;;2.35;;
22034;SDS011;11181;51.002;4.356;2023-05-19T12:34:34;4.28;;;2.28;;
22034;SDS011;11181;51.002;4.356;2023-05-19T12:37:02;7.53;;;2.47;;
22034;SDS011;11181;51.002;4.356;2023-05-19T12:39:29;7.22;;;2.33;;
22034;SDS011;11181;51.002;4.356;2023-05-19T12:42:01;5.18;;;2.30;;
22034;SDS011;11181;51.002;4.356;2023-05-19T12:44:28;4.78;;;2.60;;
22034;SDS011;11181;51.002;4.356;2023-05-19T12:46:56;3.25;;;2.13;;
22034;SDS011;11181;51.002;4.356;2023-05-19T12:49:25;3.80;;;2.15;;
22034;SDS011;11181;51.002;4.356;2023-05-19T12:51:53;7.05;;;2.88;;
22034;SDS011;11181;51.002;4.356;2023-05-19T12:54:20;8.55;;;2.30;;
22034;SDS011;11181;51.002;4.356;2023-05-19T12:56:50;3.60;;;2.42;;
22034;SDS011;11181;51.002;4.356;2023-05-19T12:59:22;4.15;;;2.20;;
22034;SDS011;11181;51.002;4.356;2023-05-19T13:01:54;4.97;;;2.42;;
22034;SDS011;11181;51.002;4.356;2023-05-19T13:04:21;4.30;;;2.75;;
22034;SDS011;11181;51.002;4.356;2023-05-19T13:06:48;2.75;;;1.90;;
22034;SDS011;11181;51.002;4.356;2023-05-19T13:09:15;5.63;;;2.55;;
22034;SDS011;11181;51.002;4.356;2023-05-19T13:11:43;7.65;;;2.80;;
22034;SDS011;11181;51.002;4.356;2023-05-19T13:14:15;6.13;;;3.30;;
22034;SDS011;11181;51.002;4.356;2023-05-19T13:16:44;4.10;;;2.00;;
22034;SDS011;11181;51.002;4.356;2023-05-19T13:19:11;4.13;;;2.35;;
22034;SDS011;11181;51.002;4.356;2023-05-19T13:21:39;6.47;;;2.35;;
22034;SDS011;11181;51.002;4.356;2023-05-19T13:24:06;4.13;;;1.85;;
22034;SDS011;11181;51.002;4.356;2023-05-19T13:26:33;8.05;;;2.28;;
22034;SDS011;11181;51.002;4.356;2023-05-19T13:29:00;4.95;;;2.20;;
22034;SDS011;11181;51.002;4.356;2023-05-19T13:31:27;5.38;;;2.42;;
22034;SDS011;11181;51.002;4.356;2023-05-19T13:33:56;4.85;;;2.20;;
22034;SDS011;11181;51.002;4.356;2023-05-19T13:36:23;3.92;;;1.83;;
22034;SDS011;11181;51.002;4.356;2023-05-19T13:38:50;6.20;;;2.53;;
22034;SDS011;11181;51.002;4.356;2023-05-19T13:41:21;6.10;;;2.38;;
22034;SDS011;11181;51.002;4.356;2023-05-19T13:43:50;7.50;;;2.25;;
22034;SDS011;11181;51.002;4.356;2023-05-19T13:46:17;4.05;;;1.95;;
22034;SDS011;11181;51.002;4.356;2023-05-19T13:48:44;4.03;;;2.47;;
22034;SDS011;11181;51.002;4.356;2023-05-19T13:51:12;5.35;;;2.20;;
22034;SDS011;11181;51.002;4.356;2023-05-19T13:53:39;3.75;;;2.00;;
22034;SDS011;11181;51.002;4.356;2023-05-19T13:56:06;4.07;;;2.25;;
22034;SDS011;11181;51.002;4.356;2023-05-19T13:58:33;3.88;;;2.78;;
22034;SDS011;11181;51.002;4.356;2023-05-19T14:01:00;4.35;;;2.05;;
22034;SDS011;11181;51.002;4.356;2023-05-19T14:03:27;6.38;;;2.55;;
22034;SDS011;11181;51.002;4.356;2023-05-19T14:05:54;7.47;;;2.67;;
22034;SDS011;11181;51.002;4.356;2023-05-19T14:08:23;5.57;;;2.53;;
22034;SDS011;11181;51.002;4.356;2023-05-19T14:10:50;4.85;;;2.22;;
22034;SDS011;11181;51.002;4.356;2023-05-19T14:13:17;6.93;;;2.58;;
22034;SDS011;11181;51.002;4.356;2023-05-19T14:15:44;3.47;;;2.55;;
22034;SDS011;11181;51.002;4.356;2023-05-19T14:18:12;4.38;;;2.90;;
22034;SDS011;11181;51.002;4.356;2023-05-19T14:20:39;7.32;;;2.22;;
22034;SDS011;11181;51.002;4.356;2023-05-19T14:23:06;5.15;;;2.28;;
22034;SDS011;11181;51.002;4.356;2023-05-19T14:25:35;5.90;;;2.13;;
22034;SDS011;11181;51.002;4.356;2023-05-19T14:28:01;4.70;;;1.83;;
22034;SDS011;11181;51.002;4.356;2023-05-19T14:30:28;6.00;;;2.00;;
22034;SDS011;11181;51.002;4.356;2023-05-19T14:32:55;6.15;;;2.13;;
22034;SDS011;11181;51.002;4.356;2023-05-19T14:35:22;4.47;;;2.00;;
22034;SDS011;11181;51.002;4.356;2023-05-19T14:37:49;7.68;;;2.60;;
22034;SDS011;11181;51.002;4.356;2023-05-19T14:40:16;5.45;;;2.33;;
22034;SDS011;11181;51.002;4.356;2023-05-19T14:42:45;4.93;;;2.45;;
22034;SDS011;11181;51.002;4.356;2023-05-19T14:45:12;5.25;;;1.80;;
22034;SDS011;11181;51.002;4.356;2023-05-19T14:47:39;5.35;;;1.83;;
22034;SDS011;11181;51.002;4.356;2023-05-19T14:50:06;7.88;;;1.92;;
22034;SDS011;11181;51.002;4.356;2023-05-19T14:52:33;3.58;;;1.73;;
22034;SDS011;11181;51.002;4.356;2023-05-19T14:55:00;3.55;;;2.35;;